Time;durP1;ratioP1;P1;durP2;ratioP2;P2;SDS_P1;SDS_P2;PMS_P1;PMS_P2;Temp;Humidity;BMP_temperature;BMP_pressure;BME280_temperature;BME280_humidity;BME280_pressure;Samples;Min_cycle;Max_cycle;Signal;HPM_P1;HPM_P2
2022/01/29 00:01:43;;;;;;;17.33;8.53;;;;;;;2.19;74.64;95209.97;5084103;28;20243;-76
2022/01/29 00:04:18;;;;;;;18.17;7.90;;;;;;;2.16;74.87;95214.63;5090271;28;20203;-77
2022/01/29 00:06:49;;;;;;;19.00;8.37;;;;;;;2.15;75.41;95213.00;5083910;28;20245;-76
2022/01/29 00:09:19;;;;;;;17.87;8.97;;;;;;;2.17;75.35;95214.47;5085450;28;20223;-76
2022/01/29 00:11:47;;;;;;;21.20;9.00;;;;;;;2.08;76.32;95207.69;5086885;28;20202;-78
2022/01/29 00:14:15;;;;;;;18.80;8.87;;;;;;;2.08;76.43;95217.13;5090662;28;20297;-76
2022/01/29 00:16:45;;;;;;;16.83;8.03;;;;;;;2.04;76.97;95216.63;5089145;28;20235;-76
2022/01/29 00:19:17;;;;;;;22.67;8.60;;;;;;;2.02;77.03;95221.09;5090354;28;20663;-78
2022/01/29 00:21:44;;;;;;;17.53;8.60;;;;;;;1.95;77.64;95221.88;5085572;28;20617;-76
2022/01/29 00:24:13;;;;;;;17.53;8.33;;;;;;;1.93;77.43;95219.47;5089158;28;20299;-75
2022/01/29 00:26:43;;;;;;;18.43;8.40;;;;;;;1.94;78.10;95217.69;5090561;28;20587;-74
2022/01/29 00:29:19;;;;;;;21.50;8.80;;;;;;;1.88;78.51;95223.41;5083419;28;20208;-74
2022/01/29 00:31:46;;;;;;;21.27;9.47;;;;;;;1.80;78.86;95226.72;5082483;28;20292;-75
2022/01/29 00:34:16;;;;;;;18.87;9.20;;;;;;;1.80;78.89;95221.59;5089637;28;20240;-75
2022/01/29 00:36:44;;;;;;;17.27;8.83;;;;;;;1.78;78.67;95222.72;5090513;28;20219;-74
2022/01/29 00:39:12;;;;;;;18.57;9.20;;;;;;;1.76;79.14;95215.16;5090451;28;20297;-76
2022/01/29 00:41:42;;;;;;;20.90;9.40;;;;;;;1.75;80.03;95215.34;5082452;28;20203;-76
2022/01/29 00:44:11;;;;;;;21.63;10.23;;;;;;;1.59;80.68;95214.25;5085936;28;20201;-76
2022/01/29 00:46:41;;;;;;;19.27;9.70;;;;;;;1.64;81.16;95206.94;5079723;28;20266;-76
2022/01/29 00:49:10;;;;;;;17.60;8.63;;;;;;;1.73;80.77;95197.56;5074029;28;20697;-76
2022/01/29 00:51:38;;;;;;;15.37;7.77;;;;;;;1.73;81.41;95186.50;5072921;28;20240;-78
2022/01/29 00:54:07;;;;;;;15.47;8.67;;;;;;;1.71;82.00;95210.50;5075783;28;20262;-76
2022/01/29 00:56:35;;;;;;;15.90;8.10;;;;;;;1.70;83.24;95214.00;5063336;28;20199;-76
2022/01/29 00:59:05;;;;;;;14.50;8.17;;;;;;;1.71;83.72;95197.69;5073288;28;20206;-75
2022/01/29 01:01:34;;;;;;;16.13;8.07;;;;;;;1.68;84.08;95195.44;5076545;28;20313;-75
2022/01/29 01:04:02;;;;;;;14.63;8.07;;;;;;;1.65;84.26;95200.03;5079225;28;20212;-75
2022/01/29 01:06:30;;;;;;;17.00;7.80;;;;;;;1.71;84.21;95207.13;5069225;28;20261;-75
2022/01/29 01:08:59;;;;;;;17.43;8.87;;;;;;;1.69;84.52;95204.75;5052860;28;20220;-75
2022/01/29 01:11:28;;;;;;;21.87;9.60;;;;;;;1.66;84.57;95204.22;5063136;28;20212;-75
2022/01/29 01:13:57;;;;;;;18.47;9.13;;;;;;;1.75;84.01;95210.22;5058379;28;20262;-75
2022/01/29 01:16:27;;;;;;;19.33;8.93;;;;;;;1.73;83.91;95196.75;5061201;28;20292;-76
2022/01/29 01:18:56;;;;;;;16.60;8.63;;;;;;;1.73;84.23;95198.34;5057270;28;20299;-75
2022/01/29 01:21:28;;;;;;;17.23;8.60;;;;;;;1.73;84.07;95195.78;5058514;28;20205;-75
2022/01/29 01:23:56;;;;;;;14.17;8.43;;;;;;;1.74;83.85;95188.91;5062483;28;20560;-76
2022/01/29 01:26:24;;;;;;;14.87;8.07;;;;;;;1.66;84.80;95182.00;5057373;28;20582;-75
2022/01/29 01:28:52;;;;;;;13.80;8.10;;;;;;;1.67;85.31;95185.34;5060669;28;20201;-75
2022/01/29 01:31:21;;;;;;;19.97;9.20;;;;;;;1.68;85.45;95184.38;5062455;28;20717;-75
2022/01/29 01:33:51;;;;;;;15.27;8.87;;;;;;;1.65;85.46;95189.81;5062384;28;20239;-76
2022/01/29 01:36:23;;;;;;;17.07;8.70;;;;;;;1.64;85.84;95194.16;5057022;28;20205;-75
2022/01/29 01:38:56;;;;;;;17.00;9.33;;;;;;;1.65;86.09;95189.81;5061082;28;20229;-75
2022/01/29 01:41:26;;;;;;;18.20;9.37;;;;;;;1.71;85.67;95190.00;5054934;28;20278;-75
2022/01/29 01:44:01;;;;;;;15.73;8.20;;;;;;;1.64;85.81;95183.09;5058325;28;20205;-75
2022/01/29 01:46:29;;;;;;;17.13;9.30;;;;;;;1.63;85.80;95189.97;5059929;28;20636;-75
2022/01/29 01:48:59;;;;;;;19.13;9.00;;;;;;;1.60;86.16;95186.91;5058430;28;20614;-76
2022/01/29 01:51:27;;;;;;;17.43;8.57;;;;;;;1.58;86.22;95189.63;5058965;28;20200;-75
2022/01/29 01:53:55;;;;;;;16.63;8.10;;;;;;;1.57;86.27;95184.63;5054736;28;20279;-75
2022/01/29 01:56:25;;;;;;;13.63;8.17;;;;;;;1.46;87.32;95172.88;5063800;28;20206;-76
2022/01/29 01:58:57;;;;;;;16.67;8.10;;;;;;;1.42;87.17;95189.50;5054237;28;20206;-74
2022/01/29 02:01:25;;;;;;;15.73;9.63;;;;;;;1.40;87.65;95178.59;5064127;28;20207;-75
2022/01/29 02:03:55;;;;;;;20.50;10.23;;;;;;;1.38;87.83;95184.81;5052114;28;20209;-75
2022/01/29 02:06:59;;;;;;;20.33;9.10;;;;;;;1.37;88.47;95188.31;5063297;28;20229;-74
2022/01/29 02:09:40;;;;;;;24.27;11.27;;;;;;;1.37;87.78;95186.56;5060692;28;20210;-75
2022/01/29 02:12:10;;;;;;;17.77;10.07;;;;;;;1.38;88.29;95193.31;5056773;28;20207;-75
2022/01/29 02:14:45;;;;;;;22.27;10.40;;;;;;;1.39;88.80;95189.78;5060804;28;20197;-75
2022/01/29 02:17:16;;;;;;;20.03;9.87;;;;;;;1.36;88.95;95184.97;5056512;28;20261;-75
2022/01/29 02:19:43;;;;;;;20.70;10.20;;;;;;;1.39;88.62;95182.09;5058645;28;20263;-74
2022/01/29 02:22:13;;;;;;;18.37;9.57;;;;;;;1.38;89.37;95192.50;5060299;28;20206;-75
2022/01/29 02:24:41;;;;;;;16.03;9.50;;;;;;;1.34;89.34;95183.50;5061967;28;20289;-75
2022/01/29 02:27:10;;;;;;;17.80;9.40;;;;;;;1.37;89.65;95201.13;5054594;28;20291;-77
2022/01/29 02:29:39;;;;;;;23.00;10.53;;;;;;;1.38;90.51;95198.44;5060527;28;20203;-74
2022/01/29 02:32:08;;;;;;;19.87;9.40;;;;;;;1.43;89.51;95203.91;5058433;28;20690;-76
2022/01/29 02:34:37;;;;;;;17.17;9.60;;;;;;;1.45;89.39;95194.31;5059536;28;20343;-75
2022/01/29 02:37:05;;;;;;;15.53;9.20;;;;;;;1.40;89.50;95186.28;5057860;28;20266;-75
2022/01/29 02:39:35;;;;;;;20.73;10.30;;;;;;;1.42;89.79;95196.34;5058312;28;20272;-75
2022/01/29 02:42:03;;;;;;;17.37;9.90;;;;;;;1.44;89.80;95197.84;5062277;28;20211;-77
2022/01/29 02:44:31;;;;;;;16.87;9.57;;;;;;;1.38;89.00;95185.63;5056456;28;20273;-76
2022/01/29 02:47:14;;;;;;;16.07;9.63;;;;;;;1.42;89.32;95191.25;5061231;28;20198;-76
2022/01/29 02:49:42;;;;;;;16.57;9.53;;;;;;;1.52;88.98;95212.44;5052001;28;20200;-75
2022/01/29 02:52:10;;;;;;;18.47;9.97;;;;;;;1.49;88.97;95208.44;5062199;28;20523;-76
2022/01/29 02:54:40;;;;;;;20.10;10.83;;;;;;;1.57;88.45;95211.06;5057049;28;20231;-76
2022/01/29 02:57:09;;;;;;;19.03;9.83;;;;;;;1.62;88.09;95202.91;5062078;28;20233;-75
2022/01/29 02:59:37;;;;;;;20.73;11.10;;;;;;;1.64;88.29;95211.28;5055169;28;20211;-76
2022/01/29 03:02:07;;;;;;;20.50;11.67;;;;;;;1.59;88.83;95214.25;5060296;28;20598;-76
2022/01/29 03:04:37;;;;;;;21.13;10.23;;;;;;;1.59;88.89;95216.81;5054499;28;20202;-76
2022/01/29 03:07:05;;;;;;;15.60;9.90;;;;;;;1.62;88.37;95219.09;5061965;28;20584;-76
2022/01/29 03:09:33;;;;;;;15.93;9.40;;;;;;;1.68;87.53;95212.56;5058892;28;20600;-75
2022/01/29 03:12:03;;;;;;;16.23;9.13;;;;;;;1.63;87.38;95218.13;5055554;28;20934;-75
2022/01/29 03:14:31;;;;;;;25.93;10.33;;;;;;;1.65;87.41;95220.53;5058701;28;20311;-77
2022/01/29 03:16:59;;;;;;;17.90;10.10;;;;;;;1.64;86.64;95208.69;5058299;28;20209;-77
2022/01/29 03:19:27;;;;;;;15.63;9.07;;;;;;;1.64;86.67;95221.50;5064734;28;20239;-76
2022/01/29 03:21:55;;;;;;;13.53;8.63;;;;;;;1.67;86.28;95219.44;5055784;28;20205;-77
2022/01/29 03:24:27;;;;;;;16.47;9.37;;;;;;;1.67;86.63;95208.41;5062680;28;20224;-75
2022/01/29 03:26:55;;;;;;;14.77;9.63;;;;;;;1.63;86.47;95222.47;5057325;28;20231;-75
2022/01/29 03:29:25;;;;;;;18.27;9.87;;;;;;;1.65;86.36;95215.41;5060441;28;20216;-76
2022/01/29 03:31:53;;;;;;;15.47;8.50;;;;;;;1.59;85.92;95206.56;5058956;28;20212;-75
2022/01/29 03:34:25;;;;;;;15.37;8.97;;;;;;;1.56;85.51;95198.38;5059162;28;20325;-75
2022/01/29 03:36:55;;;;;;;18.23;8.60;;;;;;;1.52;85.61;95199.66;5056096;28;20201;-75
2022/01/29 03:39:25;;;;;;;13.27;7.73;;;;;;;1.56;85.41;95212.00;5057634;28;20214;-76
2022/01/29 03:41:53;;;;;;;13.80;8.40;;;;;;;1.50;85.62;95202.34;5062130;28;20295;-76
2022/01/29 03:44:21;;;;;;;15.50;8.70;;;;;;;1.45;85.23;95208.88;5061334;28;20296;-76
2022/01/29 03:46:51;;;;;;;15.43;9.23;;;;;;;1.32;86.51;95203.34;5063380;28;20205;-76
2022/01/29 03:49:20;;;;;;;13.57;8.63;;;;;;;1.33;87.07;95212.63;5058924;28;20229;-76
2022/01/29 03:51:47;;;;;;;12.63;7.30;;;;;;;1.37;86.73;95213.94;5061111;28;20202;-76
2022/01/29 03:54:16;;;;;;;14.67;7.50;;;;;;;1.36;86.56;95204.63;5059999;28;20324;-76
2022/01/29 03:56:45;;;;;;;13.97;8.23;;;;;;;1.35;86.70;95213.28;5064493;28;20205;-76
2022/01/29 03:59:12;;;;;;;16.80;8.63;;;;;;;1.32;86.87;95205.91;5057401;28;20682;-76
2022/01/29 04:01:42;;;;;;;17.27;9.03;;;;;;;1.38;86.46;95202.75;5063145;28;20209;-75
2022/01/29 04:04:11;;;;;;;15.43;8.83;;;;;;;1.37;86.83;95204.50;5061486;28;20260;-75
2022/01/29 04:06:39;;;;;;;16.00;8.47;;;;;;;1.35;87.30;95201.28;5062140;28;20218;-75
2022/01/29 04:09:10;;;;;;;13.87;8.33;;;;;;;1.38;86.83;95207.88;5067228;28;20218;-76
2022/01/29 04:11:39;;;;;;;12.30;7.57;;;;;;;1.35;86.78;95201.28;5067931;28;21090;-76
2022/01/29 04:14:14;;;;;;;12.97;7.93;;;;;;;1.33;87.64;95200.63;5068178;28;20233;-77
2022/01/29 04:16:42;;;;;;;11.63;7.73;;;;;;;1.39;87.44;95204.34;5065085;28;20200;-76
2022/01/29 04:19:13;;;;;;;14.63;8.50;;;;;;;1.34;87.55;95192.00;5066422;28;20671;-76
2022/01/29 04:21:42;;;;;;;15.27;8.10;;;;;;;1.39;87.37;95196.66;5056492;28;20232;-76
2022/01/29 04:24:11;;;;;;;15.50;8.67;;;;;;;1.25;87.84;95174.97;5065116;28;20303;-76
2022/01/29 04:26:40;;;;;;;17.53;9.00;;;;;;;1.23;87.72;95188.84;5059369;28;20205;-75
2022/01/29 04:29:09;;;;;;;14.47;8.90;;;;;;;1.27;87.88;95197.88;5065281;28;20202;-75
2022/01/29 04:31:44;;;;;;;14.53;8.20;;;;;;;1.22;87.43;95197.47;5057822;28;20206;-76
2022/01/29 04:34:14;;;;;;;13.73;8.57;;;;;;;1.27;87.59;95203.75;5061573;28;20247;-74
2022/01/29 04:36:43;;;;;;;17.23;10.33;;;;;;;1.28;87.56;95199.44;5063591;28;20203;-75
2022/01/29 04:39:11;;;;;;;20.23;9.87;;;;;;;1.32;87.51;95203.34;5059537;28;20619;-74
2022/01/29 04:41:40;;;;;;;20.23;12.57;;;;;;;1.34;87.47;95209.91;5061571;28;20230;-74
2022/01/29 04:44:08;;;;;;;20.10;11.67;;;;;;;1.36;87.13;95207.19;5058939;28;20210;-75
2022/01/29 04:46:37;;;;;;;16.33;9.80;;;;;;;1.35;86.23;95216.66;5063385;28;20239;-74
2022/01/29 04:49:06;;;;;;;18.77;9.57;;;;;;;1.35;85.69;95214.09;5056411;28;20228;-75
2022/01/29 04:51:36;;;;;;;14.13;8.70;;;;;;;1.33;85.69;95212.63;5065401;28;20817;-74
2022/01/29 04:54:05;;;;;;;13.90;7.83;;;;;;;1.28;85.79;95199.44;5054300;28;20227;-74
2022/01/29 04:56:34;;;;;;;14.27;7.70;;;;;;;1.32;85.81;95216.94;5065227;28;20296;-74
2022/01/29 04:59:01;;;;;;;12.23;7.10;;;;;;;1.21;86.45;95209.50;5062150;28;20272;-74
2022/01/29 05:01:29;;;;;;;12.50;7.87;;;;;;;1.27;86.93;95219.13;5057253;28;20210;-75
2022/01/29 05:03:57;;;;;;;15.03;8.50;;;;;;;1.28;86.66;95222.50;5063798;28;20759;-74
2022/01/29 05:06:25;;;;;;;13.17;8.53;;;;;;;1.29;86.86;95226.66;5061654;28;20202;-77
2022/01/29 05:08:54;;;;;;;11.83;8.20;;;;;;;1.25;87.49;95228.72;5056690;28;20202;-77
2022/01/29 05:11:22;;;;;;;13.10;8.10;;;;;;;1.28;87.77;95225.84;5061666;28;20214;-77
2022/01/29 05:13:51;;;;;;;16.20;8.43;;;;;;;1.27;87.72;95228.59;5061560;28;20552;-71
2022/01/29 05:17:05;;;;;;;16.93;9.73;;;;;;;1.31;87.92;95233.25;5059197;28;20202;-71
2022/01/29 05:27:45;;;;;;;16.20;9.53;;;;;;;1.38;88.59;95233.47;5061270;28;20210;-70
2022/01/29 05:30:13;;;;;;;16.23;9.80;;;;;;;1.37;88.60;95229.28;5057014;28;20240;-72
2022/01/29 05:32:41;;;;;;;17.80;9.97;;;;;;;1.37;89.03;95231.84;5059850;28;20206;-70
2022/01/29 05:35:10;;;;;;;19.97;11.00;;;;;;;1.36;89.19;95227.66;5055543;28;20234;-72
2022/01/29 05:37:38;;;;;;;19.80;11.33;;;;;;;1.39;89.04;95230.75;5064516;28;20219;-71
2022/01/29 05:40:09;;;;;;;19.60;10.30;;;;;;;1.34;89.01;95224.47;5059461;28;20287;-71
2022/01/29 05:42:38;;;;;;;20.20;9.60;;;;;;;1.11;90.38;95227.47;5062428;28;20749;-71
2022/01/29 05:45:07;;;;;;;14.90;8.97;;;;;;;1.09;91.14;95236.25;5059047;28;20267;-71
2022/01/29 05:47:35;;;;;;;14.93;8.30;;;;;;;0.82;93.08;95238.84;5060212;28;20338;-71
2022/01/29 05:50:04;;;;;;;12.73;8.40;;;;;;;0.78;94.00;95240.88;5058664;28;20267;-72
2022/01/29 05:52:32;;;;;;;17.30;9.60;;;;;;;0.82;93.82;95254.19;5059684;28;20208;-71
2022/01/29 05:55:01;;;;;;;16.67;9.10;;;;;;;0.89;93.20;95253.50;5063007;28;20214;-73
2022/01/29 05:57:30;;;;;;;16.43;9.47;;;;;;;0.93;93.13;95259.09;5060274;28;20210;-77
2022/01/29 05:59:58;;;;;;;18.80;10.37;;;;;;;0.86;94.28;95265.75;5062116;28;20210;-75
2022/01/29 06:02:27;;;;;;;17.63;9.90;;;;;;;0.73;94.45;95257.59;5060727;28;20200;-74
2022/01/29 06:04:55;;;;;;;14.70;8.53;;;;;;;0.75;94.80;95259.06;5063401;28;21181;-76
2022/01/29 06:07:22;;;;;;;14.00;9.03;;;;;;;0.71;95.50;95264.63;5059698;28;20847;-75
2022/01/29 06:09:51;;;;;;;13.97;8.80;;;;;;;0.68;95.17;95268.28;5061009;28;20236;-77
2022/01/29 06:12:19;;;;;;;15.23;8.97;;;;;;;0.80;94.81;95277.38;5055792;28;20297;-76
2022/01/29 06:14:48;;;;;;;16.23;9.73;;;;;;;0.82;94.93;95279.78;5065018;28;20271;-76
2022/01/29 06:17:17;;;;;;;19.47;10.43;;;;;;;0.89;94.63;95276.50;5060252;28;20216;-78
2022/01/29 06:19:48;;;;;;;21.53;11.23;;;;;;;0.93;94.17;95271.88;5059372;28;20241;-78
2022/01/29 06:22:16;;;;;;;24.50;12.57;;;;;;;1.00;93.48;95281.44;5059202;28;20205;-78
2022/01/29 06:24:44;;;;;;;29.10;15.53;;;;;;;1.04;93.83;95275.06;5059479;28;20206;-77
2022/01/29 06:27:12;;;;;;;34.87;17.17;;;;;;;1.08;93.92;95278.94;5058306;28;20202;-78
2022/01/29 06:29:40;;;;;;;39.40;18.70;;;;;;;1.14;92.91;95283.50;5060208;28;20231;-79
2022/01/29 06:32:10;;;;;;;29.20;15.27;;;;;;;1.17;92.91;95282.38;5065225;28;20211;-78
2022/01/29 06:34:39;;;;;;;26.07;14.97;;;;;;;1.24;92.54;95278.28;5064764;28;20635;-80
2022/01/29 06:37:07;;;;;;;23.33;14.17;;;;;;;1.32;91.71;95277.56;5066573;28;20213;-76
2022/01/29 06:39:36;;;;;;;22.50;12.30;;;;;;;1.36;91.16;95278.88;5052961;28;20213;-76
2022/01/29 06:42:07;;;;;;;30.00;14.53;;;;;;;1.41;90.77;95294.63;5059039;28;20211;-76
2022/01/29 06:44:35;;;;;;;24.60;13.33;;;;;;;1.37;90.74;95293.28;5055923;28;20286;-76
2022/01/29 06:47:04;;;;;;;24.10;12.23;;;;;;;1.36;91.25;95289.09;5060895;28;20207;-76
2022/01/29 06:49:34;;;;;;;23.47;12.87;;;;;;;1.35;91.37;95301.13;5060412;28;20196;-77
2022/01/29 06:52:02;;;;;;;21.57;11.87;;;;;;;1.45;90.86;95301.84;5058514;28;20283;-75
2022/01/29 06:54:31;;;;;;;16.43;10.30;;;;;;;1.45;90.69;95299.28;5060029;28;20661;-76
2022/01/29 06:56:59;;;;;;;21.43;11.67;;;;;;;1.43;90.91;95308.06;5056810;28;20219;-76
2022/01/29 06:59:28;;;;;;;13.23;8.77;;;;;;;1.44;90.28;95310.50;5065179;28;20217;-76
2022/01/29 07:01:56;;;;;;;15.33;10.17;;;;;;;1.37;91.09;95312.03;5054343;28;20289;-77
2022/01/29 07:04:25;;;;;;;19.13;11.43;;;;;;;1.35;91.43;95315.69;5058144;28;20195;-77
2022/01/29 07:06:56;;;;;;;18.00;10.00;;;;;;;1.43;91.46;95314.00;5077327;28;20205;-78
2022/01/29 07:09:24;;;;;;;21.13;11.57;;;;;;;1.47;90.38;95312.75;5068062;28;20228;-78
2022/01/29 07:11:56;;;;;;;20.63;10.47;;;;;;;1.27;91.92;95297.69;5070484;28;20202;-77
2022/01/29 07:14:26;;;;;;;21.63;10.80;;;;;;;1.33;91.64;95320.16;5068035;28;20323;-78
2022/01/29 07:16:54;;;;;;;20.50;11.20;;;;;;;1.24;92.51;95318.47;5071748;28;20197;-78
2022/01/29 07:19:23;;;;;;;15.13;9.03;;;;;;;1.41;91.55;95325.34;5068731;28;20666;-77
2022/01/29 07:21:52;;;;;;;18.17;11.43;;;;;;;1.45;90.83;95324.91;5078515;28;20727;-78
2022/01/29 07:24:21;;;;;;;20.33;9.80;;;;;;;1.48;90.65;95321.22;5075638;28;20664;-77
2022/01/29 07:26:49;;;;;;;20.23;10.67;;;;;;;1.50;90.43;95319.34;5075241;28;20212;-78
2022/01/29 07:29:19;;;;;;;25.87;12.67;;;;;;;1.34;91.46;95320.00;5076053;28;20208;-77
2022/01/29 07:31:46;;;;;;;25.80;12.53;;;;;;;1.37;91.19;95334.25;5074574;28;20220;-78
2022/01/29 07:34:14;;;;;;;23.17;11.67;;;;;;;1.40;91.54;95327.09;5077578;28;20243;-78
2022/01/29 07:36:42;;;;;;;18.77;10.13;;;;;;;1.47;90.05;95324.75;5074595;28;20208;-77
2022/01/29 07:39:10;;;;;;;15.90;9.70;;;;;;;1.36;91.02;95328.31;5078814;28;20304;-78
2022/01/29 07:41:39;;;;;;;18.97;10.20;;;;;;;1.34;91.85;95337.91;5071374;28;20588;-77
2022/01/29 07:44:08;;;;;;;17.53;10.80;;;;;;;1.33;91.25;95338.06;5070801;28;20679;-78
2022/01/29 07:46:38;;;;;;;16.67;9.97;;;;;;;1.43;90.68;95346.47;5072210;28;20213;-78
2022/01/29 07:49:06;;;;;;;18.27;10.97;;;;;;;1.41;91.22;95346.63;5073410;28;20288;-79
2022/01/29 07:51:35;;;;;;;22.43;10.87;;;;;;;1.48;90.69;95350.22;5070878;28;20241;-78
2022/01/29 07:54:04;;;;;;;21.97;11.93;;;;;;;1.53;90.29;95347.22;5075360;28;20208;-78
2022/01/29 07:56:32;;;;;;;21.07;11.30;;;;;;;1.53;90.79;95349.78;5069457;28;20208;-77
2022/01/29 07:59:03;;;;;;;20.60;11.57;;;;;;;1.56;90.58;95346.91;5077832;28;20634;-79
2022/01/29 08:01:31;;;;;;;20.40;10.30;;;;;;;1.49;91.34;95356.97;5073521;28;20201;-77
2022/01/29 08:03:59;;;;;;;16.37;9.43;;;;;;;1.30;92.90;95353.72;5072136;28;20685;-78
2022/01/29 08:06:29;;;;;;;14.80;8.53;;;;;;;1.37;92.53;95363.22;5072482;28;20201;-80
2022/01/29 08:08:58;;;;;;;13.53;8.13;;;;;;;1.32;92.77;95356.94;5075260;28;20216;-76
2022/01/29 08:11:26;;;;;;;14.93;8.50;;;;;;;1.26;92.98;95357.50;5077076;28;20677;-78
2022/01/29 08:13:55;;;;;;;17.77;11.23;;;;;;;1.25;93.80;95364.38;5072353;28;20201;-81
2022/01/29 08:16:25;;;;;;;19.90;11.40;;;;;;;1.37;92.79;95355.53;5074929;28;20318;-78
2022/01/29 08:18:53;;;;;;;15.93;9.37;;;;;;;1.55;91.82;95366.63;5073620;28;20311;-79
2022/01/29 08:21:20;;;;;;;16.17;8.37;;;;;;;1.48;92.13;95360.44;5068637;28;20206;-78
2022/01/29 08:23:50;;;;;;;13.00;7.90;;;;;;;1.40;93.32;95365.50;5071373;28;20656;-77
2022/01/29 08:26:19;;;;;;;20.40;12.03;;;;;;;1.42;93.17;95371.28;5069329;28;20202;-78
2022/01/29 08:28:46;;;;;;;23.13;12.10;;;;;;;1.51;93.66;95369.59;5072213;28;20208;-78
2022/01/29 08:31:19;;;;;;;15.13;9.00;;;;;;;1.56;93.24;95365.66;5069994;28;20276;-78
2022/01/29 08:33:48;;;;;;;17.57;9.70;;;;;;;1.68;91.98;95369.63;5072460;28;20283;-79
2022/01/29 08:36:16;;;;;;;15.73;9.17;;;;;;;1.61;92.24;95378.03;5069444;28;20235;-78
2022/01/29 08:38:43;;;;;;;14.37;9.33;;;;;;;1.61;91.99;95378.03;5072127;28;20285;-79
2022/01/29 08:41:11;;;;;;;16.83;9.70;;;;;;;1.73;92.37;95367.41;5069819;28;20205;-79
2022/01/29 08:43:44;;;;;;;22.23;12.87;;;;;;;1.89;91.74;95369.31;5075922;28;20210;-79
2022/01/29 08:46:12;;;;;;;24.50;12.57;;;;;;;2.15;90.92;95367.63;5068242;28;20214;-78
2022/01/29 08:48:39;;;;;;;13.13;8.43;;;;;;;2.24;89.29;95373.59;5077654;28;20219;-79
2022/01/29 08:51:08;;;;;;;20.53;10.93;;;;;;;2.32;88.92;95375.41;5067984;28;20242;-78
2022/01/29 08:53:37;;;;;;;21.10;11.10;;;;;;;2.47;88.75;95376.50;5079269;28;20239;-80
2022/01/29 08:56:06;;;;;;;13.73;8.00;;;;;;;2.60;87.65;95384.56;5072968;28;20225;-77
2022/01/29 08:58:34;;;;;;;15.60;9.87;;;;;;;2.60;87.38;95390.53;5079233;28;20291;-77
2022/01/29 09:01:03;;;;;;;15.20;9.57;;;;;;;2.70;88.00;95391.22;5074350;28;20237;-77
2022/01/29 09:03:31;;;;;;;14.47;9.50;;;;;;;2.71;87.23;95399.75;5072897;28;20216;-75
2022/01/29 09:05:59;;;;;;;15.10;9.37;;;;;;;2.61;86.75;95387.00;5069348;28;20209;-77
2022/01/29 09:08:29;;;;;;;18.07;10.97;;;;;;;2.65;87.73;95396.03;5074139;28;20205;-76
2022/01/29 09:10:57;;;;;;;16.00;10.50;;;;;;;2.58;88.40;95402.69;5078350;28;20205;-76
2022/01/29 09:13:26;;;;;;;16.63;10.10;;;;;;;2.64;88.16;95404.66;5068082;28;20206;-77
2022/01/29 09:15:53;;;;;;;14.50;9.43;;;;;;;2.68;87.92;95406.00;5080831;28;20231;-77
2022/01/29 09:18:21;;;;;;;19.10;11.70;;;;;;;2.72;87.08;95403.91;5071492;28;20198;-80
2022/01/29 09:20:48;;;;;;;21.70;13.07;;;;;;;2.79;86.85;95402.34;5071423;28;20208;-80
2022/01/29 09:23:16;;;;;;;27.57;15.67;;;;;;;2.81;86.60;95390.97;5071912;28;20521;-83
2022/01/29 09:25:46;;;;;;;21.13;11.97;;;;;;;2.74;86.42;95378.91;5070972;28;20201;-76
2022/01/29 09:28:17;;;;;;;16.10;10.50;;;;;;;2.79;86.50;95389.53;5069665;28;20882;-77
2022/01/29 09:30:47;;;;;;;23.80;12.60;;;;;;;2.89;87.05;95389.41;5074201;28;20734;-76
2022/01/29 09:33:14;;;;;;;19.67;11.77;;;;;;;2.93;85.20;95385.56;5072388;28;20990;-73
2022/01/29 09:35:44;;;;;;;16.70;10.23;;;;;;;2.94;84.75;95377.72;5070922;28;20240;-73
2022/01/29 09:38:15;;;;;;;17.03;10.40;;;;;;;2.95;84.97;95388.78;5074684;28;20216;-73
2022/01/29 09:40:45;;;;;;;21.63;11.77;;;;;;;2.98;84.25;95388.47;5074190;28;20233;-73
2022/01/29 09:43:13;;;;;;;29.10;14.57;;;;;;;2.96;83.92;95390.41;5075157;28;20688;-74
2022/01/29 09:45:40;;;;;;;25.37;12.30;;;;;;;2.93;84.95;95400.97;5074039;28;20208;-73
2022/01/29 09:48:08;;;;;;;21.40;11.87;;;;;;;2.98;83.36;95403.88;5077788;28;20204;-73
2022/01/29 09:50:38;;;;;;;20.73;10.50;;;;;;;3.16;82.86;95400.28;5070164;28;20201;-73
2022/01/29 09:53:08;;;;;;;16.50;10.97;;;;;;;3.40;81.38;95397.81;5076423;28;20204;-74
2022/01/29 09:55:36;;;;;;;14.67;8.73;;;;;;;3.39;81.12;95395.41;5070061;28;20241;-73
2022/01/29 09:58:07;;;;;;;16.00;9.40;;;;;;;3.39;81.32;95392.81;5072564;28;20205;-73
2022/01/29 10:00:35;;;;;;;15.57;10.13;;;;;;;3.46;80.77;95391.25;5072924;28;20611;-74
2022/01/29 10:03:19;;;;;;;12.67;7.97;;;;;;;3.60;81.04;95392.41;5072868;28;20197;-73
2022/01/29 10:05:49;;;;;;;14.50;9.13;;;;;;;3.54;79.90;95398.19;5055565;28;20205;-73
2022/01/29 10:08:19;;;;;;;15.87;9.37;;;;;;;3.11;81.82;95387.13;5058471;28;20308;-73
2022/01/29 10:10:48;;;;;;;16.97;10.43;;;;;;;2.98;83.16;95388.47;5054445;28;20677;-73
2022/01/29 10:13:31;;;;;;;17.20;9.90;;;;;;;2.80;83.20;95384.22;5062463;28;20244;-73
2022/01/29 10:16:09;;;;;;;17.63;9.27;;;;;;;2.59;84.67;95398.38;5053460;28;20220;-73
2022/01/29 10:18:38;;;;;;;15.93;9.43;;;;;;;2.43;86.58;95393.13;5061360;28;20203;-75
2022/01/29 10:21:15;;;;;;;20.80;10.30;;;;;;;2.28;88.00;95378.28;5058934;28;20595;-74
2022/01/29 10:23:45;;;;;;;22.10;12.47;;;;;;;2.39;88.41;95390.06;5057666;28;20200;-73
2022/01/29 10:26:26;;;;;;;21.83;12.20;;;;;;;2.26;88.74;95384.50;5058959;28;20201;-73
2022/01/29 10:28:57;;;;;;;21.17;12.33;;;;;;;2.34;88.87;95389.69;5055594;28;20632;-74
2022/01/29 10:31:27;;;;;;;15.77;10.20;;;;;;;2.48;88.05;95383.25;5063661;28;20594;-74
2022/01/29 10:33:54;;;;;;;21.43;11.80;;;;;;;2.41;88.21;95377.91;5053887;28;20241;-73
2022/01/29 10:36:22;;;;;;;18.70;11.10;;;;;;;2.38;88.63;95380.75;5065878;28;20239;-73
2022/01/29 10:38:57;;;;;;;22.20;12.20;;;;;;;2.34;88.82;95384.56;5054868;28;20700;-73
2022/01/29 10:41:28;;;;;;;21.97;11.77;;;;;;;2.50;88.40;95387.25;5064862;28;20213;-73
2022/01/29 10:44:13;;;;;;;18.60;10.67;;;;;;;2.43;88.22;95400.81;5058250;28;20632;-73
2022/01/29 10:46:44;;;;;;;16.77;10.37;;;;;;;2.48;88.99;95388.38;5058270;28;20603;-73
2022/01/29 10:49:24;;;;;;;18.27;10.87;;;;;;;2.55;89.01;95389.38;5058384;28;20216;-73
2022/01/29 10:52:02;;;;;;;24.63;12.03;;;;;;;2.54;89.12;95383.41;5054760;28;20210;-74
2022/01/29 10:54:33;;;;;;;19.30;10.67;;;;;;;2.63;88.51;95392.78;5057614;28;20247;-73
2022/01/29 10:57:03;;;;;;;18.20;10.50;;;;;;;2.63;88.47;95402.22;5060130;28;20236;-73
2022/01/29 10:59:35;;;;;;;18.60;11.07;;;;;;;2.71;88.34;95395.38;5057766;28;20630;-73
2022/01/29 11:02:06;;;;;;;18.07;10.53;;;;;;;2.84;87.43;95395.00;5052547;28;20691;-74
2022/01/29 11:04:36;;;;;;;19.07;10.93;;;;;;;2.77;88.18;95396.56;5070320;28;20203;-73
2022/01/29 11:07:10;;;;;;;16.17;9.90;;;;;;;2.76;88.34;95395.75;5072351;28;20201;-73
2022/01/29 11:09:42;;;;;;;16.80;10.83;;;;;;;2.76;87.88;95382.13;5073333;28;20204;-74
2022/01/29 11:12:13;;;;;;;17.33;10.10;;;;;;;2.71;87.90;95374.88;5072824;28;20655;-73
2022/01/29 11:14:42;;;;;;;32.13;17.03;;;;;;;2.80;87.81;95360.31;5074914;28;20207;-74
2022/01/29 11:17:12;;;;;;;25.10;14.77;;;;;;;2.78;87.73;95369.94;5072852;28;20318;-74
2022/01/29 11:19:41;;;;;;;24.43;13.23;;;;;;;2.85;87.47;95374.31;5076321;28;20212;-74
2022/01/29 11:22:11;;;;;;;26.47;14.13;;;;;;;2.95;86.24;95379.31;5067541;28;21038;-73
2022/01/29 11:24:42;;;;;;;23.33;12.87;;;;;;;2.96;84.85;95372.44;5077836;28;20663;-74
2022/01/29 11:27:25;;;;;;;24.07;13.33;;;;;;;2.77;85.28;95376.81;5068470;28;20234;-74
2022/01/29 11:30:12;;;;;;;27.70;14.53;;;;;;;2.74;85.77;95372.00;5068090;28;20202;-73
2022/01/29 11:32:42;;;;;;;27.97;14.17;;;;;;;2.79;85.94;95374.13;5069065;28;20236;-72
2022/01/29 11:35:19;;;;;;;26.93;15.00;;;;;;;2.69;86.27;95370.84;5072234;28;20292;-76
2022/01/29 11:37:53;;;;;;;25.20;15.27;;;;;;;2.74;86.77;95374.56;5075706;28;20207;-76
2022/01/29 11:40:27;;;;;;;26.30;14.73;;;;;;;2.85;86.12;95371.75;5072788;28;20205;-77
2022/01/29 11:43:24;;;;;;;27.57;14.70;;;;;;;2.97;85.69;95368.91;5077335;28;20201;-77
2022/01/29 11:45:58;;;;;;;16.47;10.87;;;;;;;3.02;84.77;95364.13;5065070;28;20220;-76
2022/01/29 11:48:55;;;;;;;21.77;11.60;;;;;;;3.00;84.70;95366.81;5076195;28;20205;-76
2022/01/29 11:51:50;;;;;;;21.27;11.93;;;;;;;2.94;84.34;95375.16;5071962;28;20208;-78